sensor_id;sensor_type;location;lat;lon;timestamp;pressure;altitude;pressure_sealevel;temperature;humidity
52032;BME280;38044;45.148;39.604;2023-03-22T00:00:37;101255.59;;;9.46;81.93
52032;BME280;38044;45.148;39.604;2023-03-22T00:03:04;101251.56;;;9.48;81.73
52032;BME280;38044;45.148;39.604;2023-03-22T00:05:31;101197.56;;;9.14;81.51
52032;BME280;38044;45.148;39.604;2023-03-22T00:07:57;101237.59;;;9.36;81.65
52032;BME280;38044;45.148;39.604;2023-03-22T00:10:24;101244.31;;;9.39;81.81
52032;BME280;38044;45.148;39.604;2023-03-22T00:12:51;101252.91;;;9.51;81.53
52032;BME280;38044;45.148;39.604;2023-03-22T00:15:17;101247.81;;;9.55;81.88
52032;BME280;38044;45.148;39.604;2023-03-22T00:17:44;101243.78;;;9.57;81.72
52032;BME280;38044;45.148;39.604;2023-03-22T00:20:10;101237.59;;;9.46;81.77
52032;BME280;38044;45.148;39.604;2023-03-22T00:22:39;101238.41;;;9.52;81.81
52032;BME280;38044;45.148;39.604;2023-03-22T00:25:06;101241.63;;;9.49;81.93
52032;BME280;38044;45.148;39.604;2023-03-22T00:27:31;101231.41;;;9.41;81.85
52032;BME280;38044;45.148;39.604;2023-03-22T00:29:57;101235.47;;;9.48;81.63
52032;BME280;38044;45.148;39.604;2023-03-22T00:32:23;101246.47;;;9.62;81.64
52032;BME280;38044;45.148;39.604;2023-03-22T00:34:49;101152.78;;;9.05;81.15
52032;BME280;38044;45.148;39.604;2023-03-22T00:37:16;101262.03;;;9.60;81.10
52032;BME280;38044;45.148;39.604;2023-03-22T00:39:43;101251.59;;;9.59;81.29
52032;BME280;38044;45.148;39.604;2023-03-22T00:42:09;101251.59;;;9.59;81.27
52032;BME280;38044;45.148;39.604;2023-03-22T00:44:35;101044.06;;;8.35;81.33
52032;BME280;38044;45.148;39.604;2023-03-22T00:47:01;101216.94;;;9.42;81.28
52032;BME280;38044;45.148;39.604;2023-03-22T00:49:27;101239.22;;;9.47;81.46
52032;BME280;38044;45.148;39.604;2023-03-22T00:51:53;101253.97;;;9.55;81.48
52032;BME280;38044;45.148;39.604;2023-03-22T00:54:19;101207.53;;;9.19;81.61
52032;BME280;38044;45.148;39.604;2023-03-22T00:56:45;101250.22;;;9.51;82.09
52032;BME280;38044;45.148;39.604;2023-03-22T00:59:12;101252.94;;;9.56;81.73
52032;BME280;38044;45.148;39.604;2023-03-22T01:01:39;101212.13;;;9.39;81.51
52032;BME280;38044;45.148;39.604;2023-03-22T01:04:05;101241.66;;;9.59;81.11
52032;BME280;38044;45.148;39.604;2023-03-22T01:06:32;101233.88;;;9.63;81.08
52032;BME280;38044;45.148;39.604;2023-03-22T01:08:58;101146.06;;;8.97;81.12
52032;BME280;38044;45.148;39.604;2023-03-22T01:11:24;101189.56;;;9.24;80.99
52032;BME280;38044;45.148;39.604;2023-03-22T01:13:50;101208.31;;;9.19;81.35
52032;BME280;38044;45.148;39.604;2023-03-22T01:16:16;101109.50;;;8.60;81.76
52032;BME280;38044;45.148;39.604;2023-03-22T01:18:43;101203.50;;;9.16;82.23
52032;BME280;38044;45.148;39.604;2023-03-22T01:21:09;101220.13;;;9.23;82.08
52032;BME280;38044;45.148;39.604;2023-03-22T01:23:35;101239.22;;;9.47;81.95
52032;BME280;38044;45.148;39.604;2023-03-22T01:26:02;101115.44;;;8.67;81.56
52032;BME280;38044;45.148;39.604;2023-03-22T01:28:28;101227.94;;;9.40;81.30
52032;BME280;38044;45.148;39.604;2023-03-22T01:30:54;101246.75;;;9.56;81.33
52032;BME280;38044;45.148;39.604;2023-03-22T01:33:21;101215.34;;;9.36;80.84
52032;BME280;38044;45.148;39.604;2023-03-22T01:35:47;101123.75;;;8.81;80.74
52032;BME280;38044;45.148;39.604;2023-03-22T01:38:12;101145.00;;;8.93;80.86
52032;BME280;38044;45.148;39.604;2023-03-22T01:40:39;101085.91;;;8.52;80.92
52032;BME280;38044;45.148;39.604;2023-03-22T01:43:13;101240.28;;;9.46;81.53
52032;BME280;38044;45.148;39.604;2023-03-22T01:45:51;101244.59;;;9.42;81.95
52032;BME280;38044;45.148;39.604;2023-03-22T01:51:20;101122.38;;;8.63;82.21
52032;BME280;38044;45.148;39.604;2023-03-22T01:54:09;101249.94;;;9.53;82.67
52032;BME280;38044;45.148;39.604;2023-03-22T01:56:38;101249.69;;;9.39;82.29
52032;BME280;38044;45.148;39.604;2023-03-22T01:59:05;101255.03;;;9.34;82.39
52032;BME280;38044;45.148;39.604;2023-03-22T02:01:33;101244.31;;;9.39;82.54
52032;BME280;38044;45.148;39.604;2023-03-22T02:04:12;101235.72;;;9.37;82.68
52032;BME280;38044;45.148;39.604;2023-03-22T02:06:39;101211.78;;;9.10;82.59
52032;BME280;38044;45.148;39.604;2023-03-22T02:09:09;101206.41;;;9.05;82.97
52032;BME280;38044;45.148;39.604;2023-03-22T02:11:39;101217.41;;;9.18;82.72
52032;BME280;38044;45.148;39.604;2023-03-22T02:25:28;101232.44;;;9.14;82.71
52032;BME280;38044;45.148;39.604;2023-03-22T02:29:02;101216.84;;;9.01;82.18
52032;BME280;38044;45.148;39.604;2023-03-22T02:34:04;101259.31;;;9.24;82.73
52032;BME280;38044;45.148;39.604;2023-03-22T02:39:23;101095.97;;;8.24;82.53
52032;BME280;38044;45.148;39.604;2023-03-22T02:47:52;101264.63;;;9.14;82.82
52032;BME280;38044;45.148;39.604;2023-03-22T02:50:33;101278.03;;;9.14;83.15
52032;BME280;38044;45.148;39.604;2023-03-22T02:53:14;101244.19;;;8.93;83.01
52032;BME280;38044;45.148;39.604;2023-03-22T02:55:50;101175.44;;;8.56;83.18
52032;BME280;38044;45.148;39.604;2023-03-22T02:58:22;101265.72;;;9.13;83.08
52032;BME280;38044;45.148;39.604;2023-03-22T03:00:55;101270.25;;;9.13;83.47
52032;BME280;38044;45.148;39.604;2023-03-22T03:03:26;101223.25;;;8.90;83.42
52032;BME280;38044;45.148;39.604;2023-03-22T03:05:58;101245.84;;;9.09;83.33
52032;BME280;38044;45.148;39.604;2023-03-22T03:08:26;101263.84;;;9.24;83.13
52032;BME280;38044;45.148;39.604;2023-03-22T03:10:52;101120.66;;;8.37;82.72
52032;BME280;38044;45.148;39.604;2023-03-22T03:13:19;101256.06;;;9.22;82.67
52032;BME280;38044;45.148;39.604;2023-03-22T03:15:51;101264.66;;;9.30;82.99
52032;BME280;38044;45.148;39.604;2023-03-22T03:18:38;101253.41;;;9.38;83.13
52032;BME280;38044;45.148;39.604;2023-03-22T03:26:39;101232.44;;;9.09;82.63
52032;BME280;38044;45.148;39.604;2023-03-22T03:29:15;101195.63;;;8.79;82.62
52032;BME280;38044;45.148;39.604;2023-03-22T03:31:49;101260.59;;;9.12;82.78
52032;BME280;38044;45.148;39.604;2023-03-22T03:37:10;101259.81;;;9.11;83.49
52032;BME280;38044;45.148;39.604;2023-03-22T03:39:43;101098.53;;;8.04;83.64
52032;BME280;38044;45.148;39.604;2023-03-22T03:42:14;101247.44;;;9.00;83.78
52032;BME280;38044;45.148;39.604;2023-03-22T03:44:46;101282.88;;;9.17;83.62
52032;BME280;38044;45.148;39.604;2023-03-22T03:47:18;101283.69;;;9.23;83.38
52032;BME280;38044;45.148;39.604;2023-03-22T03:49:47;101270.03;;;9.24;83.28
52032;BME280;38044;45.148;39.604;2023-03-22T03:52:13;101247.22;;;9.17;83.69
52032;BME280;38044;45.148;39.604;2023-03-22T03:54:39;101280.81;;;9.40;83.59
52032;BME280;38044;45.148;39.604;2023-03-22T03:57:05;101247.50;;;9.25;83.22
52032;BME280;38044;45.148;39.604;2023-03-22T03:59:31;101214.72;;;9.08;82.61
52032;BME280;38044;45.148;39.604;2023-03-22T04:01:57;101124.22;;;8.52;82.18
52032;BME280;38044;45.148;39.604;2023-03-22T04:04:25;101292.63;;;9.54;82.06
52032;BME280;38044;45.148;39.604;2023-03-22T04:06:56;101287.00;;;9.51;82.14
52032;BME280;38044;45.148;39.604;2023-03-22T04:09:24;101289.41;;;9.57;81.97
52032;BME280;38044;45.148;39.604;2023-03-22T04:11:51;101291.03;;;9.58;82.00
52032;BME280;38044;45.148;39.604;2023-03-22T04:14:17;101134.41;;;8.55;81.86
52032;BME280;38044;45.148;39.604;2023-03-22T04:16:42;101281.88;;;9.49;81.89
52032;BME280;38044;45.148;39.604;2023-03-22T04:19:08;101302.31;;;9.65;81.61
52032;BME280;38044;45.148;39.604;2023-03-22T04:21:34;101291.03;;;9.53;81.15
52032;BME280;38044;45.148;39.604;2023-03-22T04:24:01;101303.91;;;9.56;81.18
52032;BME280;38044;45.148;39.604;2023-03-22T04:26:26;101309.56;;;9.65;81.28
52032;BME280;38044;45.148;39.604;2023-03-22T04:28:52;101287.28;;;9.54;81.09
52032;BME280;38044;45.148;39.604;2023-03-22T04:31:18;101108.16;;;8.47;80.93
52032;BME280;38044;45.148;39.604;2023-03-22T04:33:44;101288.09;;;9.65;80.79
52032;BME280;38044;45.148;39.604;2023-03-22T04:36:12;101322.78;;;10.02;80.77
52032;BME280;38044;45.148;39.604;2023-03-22T04:38:43;101287.56;;;9.83;80.12
52032;BME280;38044;45.148;39.604;2023-03-22T04:41:09;101332.97;;;10.15;79.90
52032;BME280;38044;45.148;39.604;2023-03-22T04:43:35;101332.16;;;10.25;79.76
52032;BME280;38044;45.148;39.604;2023-03-22T04:46:07;101327.09;;;10.29;79.37
52032;BME280;38044;45.148;39.604;2023-03-22T04:48:38;101310.94;;;10.13;79.31
52032;BME280;38044;45.148;39.604;2023-03-22T04:51:05;101176.94;;;9.25;78.78
52032;BME280;38044;45.148;39.604;2023-03-22T04:53:32;101305.03;;;10.01;79.08
52032;BME280;38044;45.148;39.604;2023-03-22T04:56:11;101344.25;;;10.33;79.41
52032;BME280;38044;45.148;39.604;2023-03-22T04:58:39;101338.34;;;10.26;79.26
52032;BME280;38044;45.148;39.604;2023-03-22T05:01:05;101336.75;;;10.35;79.08
52032;BME280;38044;45.148;39.604;2023-03-22T05:03:32;101306.63;;;10.23;79.08
52032;BME280;38044;45.148;39.604;2023-03-22T05:05:59;101163.25;;;9.32;78.57
52032;BME280;38044;45.148;39.604;2023-03-22T05:08:27;101337.28;;;10.47;78.61
52032;BME280;38044;45.148;39.604;2023-03-22T05:10:54;101305.03;;;10.27;78.38
52032;BME280;38044;45.148;39.604;2023-03-22T05:13:22;101247.00;;;9.95;78.44
52032;BME280;38044;45.148;39.604;2023-03-22T05:15:48;101342.34;;;10.69;78.12
52032;BME280;38044;45.148;39.604;2023-03-22T05:18:15;101351.22;;;10.75;77.70
52032;BME280;38044;45.148;39.604;2023-03-22T05:20:41;101321.91;;;10.73;77.44
52032;BME280;38044;45.148;39.604;2023-03-22T05:23:08;101309.25;;;10.79;77.60
52032;BME280;38044;45.148;39.604;2023-03-22T05:25:35;101327.41;;;11.18;76.60
52032;BME280;38044;45.148;39.604;2023-03-22T05:28:02;101328.28;;;11.53;75.80
52032;BME280;38044;45.148;39.604;2023-03-22T05:30:29;101334.88;;;11.76;74.74
52032;BME280;38044;45.148;39.604;2023-03-22T05:33:00;101210.66;;;11.09;74.03
52032;BME280;38044;45.148;39.604;2023-03-22T05:35:29;101317.44;;;12.07;73.68
52032;BME280;38044;45.148;39.604;2023-03-22T05:37:56;101348.75;;;12.32;72.71
52032;BME280;38044;45.148;39.604;2023-03-22T05:40:23;101188.94;;;11.39;72.01
52032;BME280;38044;45.148;39.604;2023-03-22T05:42:49;101362.50;;;12.65;72.79
52032;BME280;38044;45.148;39.604;2023-03-22T05:45:15;101215.59;;;12.04;71.75
52032;BME280;38044;45.148;39.604;2023-03-22T05:47:41;101346.25;;;13.18;70.53
52032;BME280;38044;45.148;39.604;2023-03-22T05:50:12;101352.97;;;13.45;68.91
52032;BME280;38044;45.148;39.604;2023-03-22T05:52:38;101337.94;;;13.77;68.78
52032;BME280;38044;45.148;39.604;2023-03-22T05:55:05;101307.66;;;13.93;66.94
52032;BME280;38044;45.148;39.604;2023-03-22T05:57:31;101336.22;;;14.79;65.54
52032;BME280;38044;45.148;39.604;2023-03-22T05:59:58;101311.88;;;16.24;61.33
52032;BME280;38044;45.148;39.604;2023-03-22T06:02:24;101271.03;;;17.26;58.44
52032;BME280;38044;45.148;39.604;2023-03-22T06:04:50;101353.94;;;19.01;54.70
52032;BME280;38044;45.148;39.604;2023-03-22T06:07:19;101339.09;;;19.62;52.91
52032;BME280;38044;45.148;39.604;2023-03-22T06:09:45;101253.16;;;19.55;50.73
52032;BME280;38044;45.148;39.604;2023-03-22T06:12:11;101332.97;;;20.64;50.71
52032;BME280;38044;45.148;39.604;2023-03-22T06:14:39;101229.72;;;20.45;48.08
52032;BME280;38044;45.148;39.604;2023-03-22T06:17:05;101314.38;;;20.45;48.35
52032;BME280;38044;45.148;39.604;2023-03-22T06:19:31;101339.34;;;20.56;48.63
52032;BME280;38044;45.148;39.604;2023-03-22T06:21:56;101183.28;;;19.84;47.97
52032;BME280;38044;45.148;39.604;2023-03-22T06:24:22;101224.72;;;20.35;46.74
52032;BME280;38044;45.148;39.604;2023-03-22T06:26:48;101322.50;;;21.15;46.82
52032;BME280;38044;45.148;39.604;2023-03-22T06:29:14;101330.50;;;21.61;46.03
52032;BME280;38044;45.148;39.604;2023-03-22T06:31:39;101234.25;;;20.90;45.60
52032;BME280;38044;45.148;39.604;2023-03-22T06:34:05;101336.22;;;21.31;46.26
52032;BME280;38044;45.148;39.604;2023-03-22T06:36:31;101307.75;;;21.45;45.96
52032;BME280;38044;45.148;39.604;2023-03-22T06:38:57;101323.47;;;22.04;44.10
52032;BME280;38044;45.148;39.604;2023-03-22T06:41:25;101191.69;;;21.58;44.55
52032;BME280;38044;45.148;39.604;2023-03-22T06:43:51;101309.69;;;23.11;43.66
52032;BME280;38044;45.148;39.604;2023-03-22T06:46:17;101321.75;;;23.81;41.96
52032;BME280;38044;45.148;39.604;2023-03-22T06:48:43;101227.59;;;23.19;41.24
52032;BME280;38044;45.148;39.604;2023-03-22T06:51:09;101214.97;;;22.79;41.55
52032;BME280;38044;45.148;39.604;2023-03-22T06:53:34;101321.88;;;23.69;40.89
52032;BME280;38044;45.148;39.604;2023-03-22T06:56:00;101293.06;;;23.39;41.78
52032;BME280;38044;45.148;39.604;2023-03-22T06:58:26;101316.25;;;22.91;42.18
52032;BME280;38044;45.148;39.604;2023-03-22T07:00:54;101295.84;;;23.04;43.19
52032;BME280;38044;45.148;39.604;2023-03-22T07:03:22;101294.84;;;23.51;41.63
52032;BME280;38044;45.148;39.604;2023-03-22T07:05:49;101329.59;;;24.02;40.22
52032;BME280;38044;45.148;39.604;2023-03-22T07:08:15;101332.88;;;24.31;40.26
52032;BME280;38044;45.148;39.604;2023-03-22T07:10:41;101305.72;;;24.06;40.46
52032;BME280;38044;45.148;39.604;2023-03-22T07:13:08;101282.69;;;24.11;40.20
52032;BME280;38044;45.148;39.604;2023-03-22T07:15:34;101177.88;;;23.01;39.71
52032;BME280;38044;45.148;39.604;2023-03-22T07:18:01;101152.34;;;22.10;41.29
52032;BME280;38044;45.148;39.604;2023-03-22T07:20:27;101261.28;;;21.32;43.03
52032;BME280;38044;45.148;39.604;2023-03-22T07:22:52;101128.50;;;19.10;45.27
52032;BME280;38044;45.148;39.604;2023-03-22T07:25:18;101301.44;;;19.13;47.49
52032;BME280;38044;45.148;39.604;2023-03-22T07:27:44;101318.41;;;18.42;48.92
52032;BME280;38044;45.148;39.604;2023-03-22T07:30:11;101262.72;;;17.66;50.39
52032;BME280;38044;45.148;39.604;2023-03-22T07:32:38;101277.28;;;18.43;49.70
52032;BME280;38044;45.148;39.604;2023-03-22T07:35:05;101224.47;;;20.03;47.07
52032;BME280;38044;45.148;39.604;2023-03-22T07:39:57;101291.84;;;23.56;41.09
52032;BME280;38044;45.148;39.604;2023-03-22T07:42:22;101274.16;;;24.65;39.51
52032;BME280;38044;45.148;39.604;2023-03-22T07:44:48;101150.94;;;23.91;38.48
52032;BME280;38044;45.148;39.604;2023-03-22T07:47:14;101236.31;;;24.55;38.39
52032;BME280;38044;45.148;39.604;2023-03-22T07:49:40;101142.53;;;24.30;38.46
52032;BME280;38044;45.148;39.604;2023-03-22T07:52:07;101282.47;;;24.00;38.96
52032;BME280;38044;45.148;39.604;2023-03-22T07:54:33;101235.34;;;22.46;40.06
52032;BME280;38044;45.148;39.604;2023-03-22T07:56:59;101171.41;;;22.38;40.74
52032;BME280;38044;45.148;39.604;2023-03-22T07:59:25;101286.81;;;23.78;40.18
52032;BME280;38044;45.148;39.604;2023-03-22T08:01:51;101252.97;;;23.93;38.82
52032;BME280;38044;45.148;39.604;2023-03-22T08:04:17;101258.78;;;24.38;38.16
52032;BME280;38044;45.148;39.604;2023-03-22T08:06:44;101167.31;;;23.84;37.44
52032;BME280;38044;45.148;39.604;2023-03-22T08:09:10;101227.88;;;24.67;37.21
52032;BME280;38044;45.148;39.604;2023-03-22T08:11:36;101245.84;;;24.61;37.18
52032;BME280;38044;45.148;39.604;2023-03-22T08:14:02;101095.59;;;23.89;37.63
52032;BME280;38044;45.148;39.604;2023-03-22T08:16:28;101228.66;;;24.68;37.97
52032;BME280;38044;45.148;39.604;2023-03-22T08:18:54;101212.25;;;24.75;37.10
52032;BME280;38044;45.148;39.604;2023-03-22T08:21:20;101134.38;;;24.11;38.00
52032;BME280;38044;45.148;39.604;2023-03-22T08:23:45;101265.22;;;24.99;37.87
52032;BME280;38044;45.148;39.604;2023-03-22T08:26:11;101233.03;;;24.23;38.86
52032;BME280;38044;45.148;39.604;2023-03-22T08:28:37;101230.38;;;24.03;38.47
52032;BME280;38044;45.148;39.604;2023-03-22T08:31:11;101228.81;;;24.29;38.08
52032;BME280;38044;45.148;39.604;2023-03-22T08:33:37;101128.13;;;23.41;38.36
52032;BME280;38044;45.148;39.604;2023-03-22T08:36:08;101234.41;;;24.33;38.17
52032;BME280;38044;45.148;39.604;2023-03-22T08:38:36;101251.06;;;24.43;37.71
52032;BME280;38044;45.148;39.604;2023-03-22T08:41:02;101212.94;;;23.92;37.49
52032;BME280;38044;45.148;39.604;2023-03-22T08:43:28;101111.41;;;23.27;39.07
52032;BME280;38044;45.148;39.604;2023-03-22T08:45:53;101231.53;;;24.02;38.20
52032;BME280;38044;45.148;39.604;2023-03-22T08:48:20;101261.38;;;24.50;37.41
52032;BME280;38044;45.148;39.604;2023-03-22T08:50:46;101263.13;;;24.39;36.70
52032;BME280;38044;45.148;39.604;2023-03-22T08:53:12;101225.53;;;24.20;36.18
52032;BME280;38044;45.148;39.604;2023-03-22T08:55:39;101099.78;;;22.75;37.82
52032;BME280;38044;45.148;39.604;2023-03-22T08:58:12;101262.22;;;23.66;38.20
52032;BME280;38044;45.148;39.604;2023-03-22T09:00:39;101256.59;;;23.39;39.09
52032;BME280;38044;45.148;39.604;2023-03-22T09:03:05;101264.16;;;22.40;40.13
52032;BME280;38044;45.148;39.604;2023-03-22T09:05:31;101139.84;;;20.28;41.96
52032;BME280;38044;45.148;39.604;2023-03-22T09:07:57;101261.91;;;20.15;43.11
52032;BME280;38044;45.148;39.604;2023-03-22T09:10:24;101223.75;;;19.94;44.08
52032;BME280;38044;45.148;39.604;2023-03-22T09:12:50;101138.03;;;20.57;43.23
52032;BME280;38044;45.148;39.604;2023-03-22T09:15:18;101221.31;;;22.16;41.79
52032;BME280;38044;45.148;39.604;2023-03-22T09:17:44;101261.81;;;22.74;40.25
52032;BME280;38044;45.148;39.604;2023-03-22T09:20:10;101264.53;;;22.22;40.67
52032;BME280;38044;45.148;39.604;2023-03-22T09:22:36;101243.06;;;21.24;41.23
52032;BME280;38044;45.148;39.604;2023-03-22T09:25:02;101259.66;;;20.54;42.88
52032;BME280;38044;45.148;39.604;2023-03-22T09:27:29;101258.09;;;20.53;43.43
52032;BME280;38044;45.148;39.604;2023-03-22T09:29:55;101219.38;;;20.76;43.03
52032;BME280;38044;45.148;39.604;2023-03-22T09:32:21;101243.84;;;21.25;41.77
52032;BME280;38044;45.148;39.604;2023-03-22T09:34:47;101143.28;;;20.00;42.74
52032;BME280;38044;45.148;39.604;2023-03-22T09:37:13;101265.13;;;19.84;43.82
52032;BME280;38044;45.148;39.604;2023-03-22T09:39:40;101250.94;;;18.95;45.48
52032;BME280;38044;45.148;39.604;2023-03-22T09:44:51;101244.47;;;18.69;47.05
52032;BME280;38044;45.148;39.604;2023-03-22T09:47:23;101146.06;;;17.91;46.83
52032;BME280;38044;45.148;39.604;2023-03-22T09:50:01;101115.81;;;17.37;47.41
52032;BME280;38044;45.148;39.604;2023-03-22T09:52:28;101084.69;;;17.08;47.70
52032;BME280;38044;45.148;39.604;2023-03-22T09:54:55;101249.19;;;18.13;47.36
52032;BME280;38044;45.148;39.604;2023-03-22T09:57:26;101226.84;;;17.99;47.53
52032;BME280;38044;45.148;39.604;2023-03-22T10:00:02;101251.44;;;18.11;47.56
52032;BME280;38044;45.148;39.604;2023-03-22T10:10:38;101235.72;;;18.17;47.76
52032;BME280;38044;45.148;39.604;2023-03-22T10:16:31;101233.03;;;18.08;48.07
52032;BME280;38044;45.148;39.604;2023-03-22T10:19:12;101195.41;;;17.54;48.69
52032;BME280;38044;45.148;39.604;2023-03-22T10:21:42;101218.56;;;17.69;49.71
52032;BME280;38044;45.148;39.604;2023-03-22T10:24:19;101081.16;;;17.16;48.91
52032;BME280;38044;45.148;39.604;2023-03-22T10:26:47;101170.09;;;17.71;48.63
52032;BME280;38044;45.148;39.604;2023-03-22T10:29:37;101194.56;;;17.89;48.14
52032;BME280;38044;45.148;39.604;2023-03-22T10:32:17;101099.94;;;17.56;49.03
52032;BME280;38044;45.148;39.604;2023-03-22T10:34:43;101200.44;;;17.99;48.38
52032;BME280;38044;45.148;39.604;2023-03-22T10:37:15;101223.88;;;18.21;48.97
52032;BME280;38044;45.148;39.604;2023-03-22T10:39:44;101225.78;;;18.30;48.58
52032;BME280;38044;45.148;39.604;2023-03-22T10:42:16;101218.09;;;18.32;48.44
52032;BME280;38044;45.148;39.604;2023-03-22T10:44:53;101057.81;;;17.32;48.67
52032;BME280;38044;45.148;39.604;2023-03-22T10:47:28;101179.97;;;18.32;47.89
52032;BME280;38044;45.148;39.604;2023-03-22T10:49:58;101175.81;;;18.26;47.59
52032;BME280;38044;45.148;39.604;2023-03-22T10:54:56;101090.13;;;17.81;47.98
52032;BME280;38044;45.148;39.604;2023-03-22T10:57:23;101164.59;;;18.36;48.50
52032;BME280;38044;45.148;39.604;2023-03-22T10:59:55;101180.56;;;18.46;47.81
52032;BME280;38044;45.148;39.604;2023-03-22T11:02:23;101197.81;;;18.50;47.94
52032;BME280;38044;45.148;39.604;2023-03-22T11:04:51;101169.09;;;18.32;47.30
52032;BME280;38044;45.148;39.604;2023-03-22T11:07:36;101143.16;;;18.26;46.54
52032;BME280;38044;45.148;39.604;2023-03-22T11:12:40;101197.31;;;18.18;47.92
52032;BME280;38044;45.148;39.604;2023-03-22T11:15:22;101141.31;;;17.70;47.83
52032;BME280;38044;45.148;39.604;2023-03-22T11:17:48;101189.47;;;17.78;47.65
52032;BME280;38044;45.148;39.604;2023-03-22T11:20:16;101142.13;;;17.62;47.88
52032;BME280;38044;45.148;39.604;2023-03-22T11:22:45;101172.97;;;18.22;47.94
52032;BME280;38044;45.148;39.604;2023-03-22T11:25:31;101136.94;;;18.25;47.46
52032;BME280;38044;45.148;39.604;2023-03-22T11:28:05;101174.94;;;18.42;46.69
52032;BME280;38044;45.148;39.604;2023-03-22T11:30:33;101176.56;;;18.05;46.76
52032;BME280;38044;45.148;39.604;2023-03-22T11:35:44;101169.47;;;18.21;47.87
52032;BME280;38044;45.148;39.604;2023-03-22T11:38:26;101172.66;;;18.23;47.79
52032;BME280;38044;45.148;39.604;2023-03-22T11:40:57;101175.81;;;18.26;48.30
52032;BME280;38044;45.148;39.604;2023-03-22T11:43:34;100990.13;;;17.10;47.88
52032;BME280;38044;45.148;39.604;2023-03-22T11:46:02;101158.53;;;18.30;47.64
52032;BME280;38044;45.148;39.604;2023-03-22T11:48:30;101169.03;;;18.11;48.24
52032;BME280;38044;45.148;39.604;2023-03-22T11:51:33;101161.19;;;18.09;47.82
52032;BME280;38044;45.148;39.604;2023-03-22T11:54:07;101166.72;;;17.92;48.56
52032;BME280;38044;45.148;39.604;2023-03-22T11:56:34;101135.25;;;17.65;47.94
52032;BME280;38044;45.148;39.604;2023-03-22T11:59:11;101129.31;;;17.71;48.19
52032;BME280;38044;45.148;39.604;2023-03-22T12:02:00;101131.69;;;17.82;47.96
52032;BME280;38044;45.148;39.604;2023-03-22T12:04:34;101148.34;;;18.18;47.19
52032;BME280;38044;45.148;39.604;2023-03-22T12:07:08;101037.13;;;17.49;47.80
52032;BME280;38044;45.148;39.604;2023-03-22T12:12:04;101125.16;;;18.42;48.41
52032;BME280;38044;45.148;39.604;2023-03-22T12:14:39;101136.09;;;18.63;46.45
52032;BME280;38044;45.148;39.604;2023-03-22T12:17:25;101138.63;;;18.89;47.36
52032;BME280;38044;45.148;39.604;2023-03-22T12:20:09;100986.34;;;17.70;46.73
52032;BME280;38044;45.148;39.604;2023-03-22T12:22:40;101141.09;;;18.22;47.91
52032;BME280;38044;45.148;39.604;2023-03-22T12:25:13;101024.88;;;17.25;48.14
52032;BME280;38044;45.148;39.604;2023-03-22T12:27:44;101148.34;;;17.71;48.29
52032;BME280;38044;45.148;39.604;2023-03-22T12:30:15;101126.66;;;17.45;49.33
52032;BME280;38044;45.148;39.604;2023-03-22T12:32:50;100991.63;;;16.55;48.47
52032;BME280;38044;45.148;39.604;2023-03-22T12:35:21;101149.38;;;17.49;49.14
52032;BME280;38044;45.148;39.604;2023-03-22T12:37:53;101110.28;;;17.07;49.67
52032;BME280;38044;45.148;39.604;2023-03-22T12:40:31;101152.44;;;17.13;50.29
52032;BME280;38044;45.148;39.604;2023-03-22T12:43:14;101141.09;;;17.02;50.75
52032;BME280;38044;45.148;39.604;2023-03-22T12:45:45;101145.44;;;16.95;51.08
52032;BME280;38044;45.148;39.604;2023-03-22T12:48:33;101146.06;;;17.00;50.81
52032;BME280;38044;45.148;39.604;2023-03-22T12:51:04;101151.94;;;16.85;50.82
52032;BME280;38044;45.148;39.604;2023-03-22T12:53:40;101096.69;;;16.63;51.40
52032;BME280;38044;45.148;39.604;2023-03-22T12:56:23;101122.41;;;17.01;51.53
52032;BME280;38044;45.148;39.604;2023-03-22T12:58:53;101124.50;;;17.04;50.67
52032;BME280;38044;45.148;39.604;2023-03-22T13:01:43;101082.19;;;16.85;50.84
52032;BME280;38044;45.148;39.604;2023-03-22T13:07:37;101101.81;;;17.08;50.67
52032;BME280;38044;45.148;39.604;2023-03-22T13:13:31;101097.63;;;16.67;51.57
52032;BME280;38044;45.148;39.604;2023-03-22T13:21:16;101077.16;;;16.35;51.99
52032;BME280;38044;45.148;39.604;2023-03-22T13:24:00;101094.75;;;16.64;51.84
52032;BME280;38044;45.148;39.604;2023-03-22T13:26:53;100972.44;;;15.91;51.61
52032;BME280;38044;45.148;39.604;2023-03-22T13:29:32;100971.00;;;15.93;50.66
52032;BME280;38044;45.148;39.604;2023-03-22T13:32:02;100942.91;;;15.72;50.83
52032;BME280;38044;45.148;39.604;2023-03-22T13:34:35;101001.19;;;16.01;50.57
52032;BME280;38044;45.148;39.604;2023-03-22T13:37:02;101107.66;;;16.50;51.10
52032;BME280;38044;45.148;39.604;2023-03-22T13:39:33;101077.63;;;16.20;51.34
52032;BME280;38044;45.148;39.604;2023-03-22T13:42:06;101093.41;;;16.18;52.06
52032;BME280;38044;45.148;39.604;2023-03-22T13:44:38;101098.69;;;16.23;52.12
52032;BME280;38044;45.148;39.604;2023-03-22T13:50:27;100997.75;;;15.69;52.28
52032;BME280;38044;45.148;39.604;2023-03-22T13:53:05;101075.56;;;16.26;51.95
52032;BME280;38044;45.148;39.604;2023-03-22T13:58:50;100972.78;;;15.49;51.58
52032;BME280;38044;45.148;39.604;2023-03-22T14:03:49;100955.16;;;15.21;51.96
52032;BME280;38044;45.148;39.604;2023-03-22T14:06:25;101134.25;;;16.21;52.41
52032;BME280;38044;45.148;39.604;2023-03-22T14:09:24;101123.56;;;16.25;52.42
52032;BME280;38044;45.148;39.604;2023-03-22T14:14:46;101126.78;;;16.27;52.47
52032;BME280;38044;45.148;39.604;2023-03-22T14:19:45;101080.13;;;16.08;52.17
52032;BME280;38044;45.148;39.604;2023-03-22T14:22:32;101123.44;;;16.39;52.10